sensor_id;sensor_type;location;lat;lon;timestamp;P1;durP1;ratioP1;P2;durP2;ratioP2
68509;SDS011;55512;50.102;19.958;2023-04-01T00:00:24;2.80;;;0.80;;
68509;SDS011;55512;50.102;19.958;2023-04-01T00:02:50;2.20;;;0.90;;
68509;SDS011;55512;50.102;19.958;2023-04-01T00:05:16;3.10;;;1.00;;
68509;SDS011;55512;50.102;19.958;2023-04-01T00:07:42;4.40;;;1.20;;
68509;SDS011;55512;50.102;19.958;2023-04-01T00:10:11;3.40;;;1.30;;
68509;SDS011;55512;50.102;19.958;2023-04-01T00:12:37;4.50;;;1.20;;
68509;SDS011;55512;50.102;19.958;2023-04-01T00:15:06;4.20;;;1.10;;
68509;SDS011;55512;50.102;19.958;2023-04-01T00:17:32;2.10;;;0.90;;
68509;SDS011;55512;50.102;19.958;2023-04-01T00:19:58;3.90;;;1.10;;
68509;SDS011;55512;50.102;19.958;2023-04-01T00:22:24;4.40;;;1.20;;
68509;SDS011;55512;50.102;19.958;2023-04-01T00:24:50;3.70;;;0.90;;
68509;SDS011;55512;50.102;19.958;2023-04-01T00:27:16;4.30;;;1.00;;
68509;SDS011;55512;50.102;19.958;2023-04-01T00:29:46;3.20;;;1.10;;
68509;SDS011;55512;50.102;19.958;2023-04-01T00:32:13;3.80;;;1.10;;
68509;SDS011;55512;50.102;19.958;2023-04-01T00:34:39;5.30;;;1.20;;
68509;SDS011;55512;50.102;19.958;2023-04-01T00:37:06;3.50;;;1.20;;
68509;SDS011;55512;50.102;19.958;2023-04-01T00:39:34;3.50;;;1.10;;
68509;SDS011;55512;50.102;19.958;2023-04-01T00:42:01;3.90;;;1.10;;
68509;SDS011;55512;50.102;19.958;2023-04-01T00:44:30;3.30;;;1.30;;
68509;SDS011;55512;50.102;19.958;2023-04-01T00:46:58;3.90;;;1.10;;
68509;SDS011;55512;50.102;19.958;2023-04-01T00:49:31;3.60;;;1.30;;
68509;SDS011;55512;50.102;19.958;2023-04-01T00:52:03;4.10;;;1.40;;
68509;SDS011;55512;50.102;19.958;2023-04-01T00:54:31;4.10;;;1.50;;
68509;SDS011;55512;50.102;19.958;2023-04-01T00:57:02;5.10;;;1.60;;
68509;SDS011;55512;50.102;19.958;2023-04-01T00:59:35;3.60;;;1.40;;
68509;SDS011;55512;50.102;19.958;2023-04-01T01:02:07;3.90;;;1.10;;
68509;SDS011;55512;50.102;19.958;2023-04-01T01:04:36;4.80;;;1.40;;
68509;SDS011;55512;50.102;19.958;2023-04-01T01:07:26;3.80;;;1.10;;
68509;SDS011;55512;50.102;19.958;2023-04-01T01:10:18;4.40;;;1.20;;
68509;SDS011;55512;50.102;19.958;2023-04-01T01:12:49;5.70;;;1.60;;
68509;SDS011;55512;50.102;19.958;2023-04-01T01:18:12;3.50;;;1.60;;
68509;SDS011;55512;50.102;19.958;2023-04-01T01:27:10;4.90;;;1.00;;
68509;SDS011;55512;50.102;19.958;2023-04-01T01:35:12;3.50;;;1.30;;
68509;SDS011;55512;50.102;19.958;2023-04-01T01:38:11;3.60;;;1.20;;
68509;SDS011;55512;50.102;19.958;2023-04-01T01:40:42;4.90;;;2.30;;
68509;SDS011;55512;50.102;19.958;2023-04-01T01:43:14;4.60;;;1.30;;
68509;SDS011;55512;50.102;19.958;2023-04-01T01:45:49;3.70;;;1.20;;
68509;SDS011;55512;50.102;19.958;2023-04-01T01:48:18;5.00;;;1.30;;
68509;SDS011;55512;50.102;19.958;2023-04-01T01:50:45;4.60;;;1.40;;
68509;SDS011;55512;50.102;19.958;2023-04-01T01:53:13;4.50;;;1.40;;
68509;SDS011;55512;50.102;19.958;2023-04-01T01:55:41;5.10;;;1.70;;
68509;SDS011;55512;50.102;19.958;2023-04-01T01:58:28;3.80;;;1.30;;
68509;SDS011;55512;50.102;19.958;2023-04-01T02:01:09;3.70;;;1.30;;
68509;SDS011;55512;50.102;19.958;2023-04-01T02:03:39;3.50;;;1.20;;
68509;SDS011;55512;50.102;19.958;2023-04-01T02:06:14;3.80;;;1.40;;
68509;SDS011;55512;50.102;19.958;2023-04-01T02:08:50;3.70;;;1.20;;
68509;SDS011;55512;50.102;19.958;2023-04-01T02:11:23;3.70;;;1.00;;
68509;SDS011;55512;50.102;19.958;2023-04-01T02:14:02;5.50;;;1.40;;
68509;SDS011;55512;50.102;19.958;2023-04-01T02:16:42;4.20;;;1.30;;
68509;SDS011;55512;50.102;19.958;2023-04-01T02:19:14;3.90;;;1.20;;
68509;SDS011;55512;50.102;19.958;2023-04-01T02:21:49;3.70;;;1.20;;
68509;SDS011;55512;50.102;19.958;2023-04-01T02:24:18;3.90;;;1.30;;
68509;SDS011;55512;50.102;19.958;2023-04-01T02:26:48;4.20;;;1.40;;
68509;SDS011;55512;50.102;19.958;2023-04-01T02:29:19;5.00;;;1.40;;
68509;SDS011;55512;50.102;19.958;2023-04-01T02:31:47;4.50;;;1.30;;
68509;SDS011;55512;50.102;19.958;2023-04-01T02:34:14;4.40;;;1.40;;
68509;SDS011;55512;50.102;19.958;2023-04-01T02:36:40;3.00;;;1.00;;
68509;SDS011;55512;50.102;19.958;2023-04-01T02:39:06;5.40;;;1.40;;
68509;SDS011;55512;50.102;19.958;2023-04-01T02:41:39;3.40;;;1.20;;
68509;SDS011;55512;50.102;19.958;2023-04-01T02:44:06;4.40;;;1.20;;
68509;SDS011;55512;50.102;19.958;2023-04-01T02:46:32;5.80;;;1.90;;
68509;SDS011;55512;50.102;19.958;2023-04-01T02:48:58;5.00;;;1.30;;
68509;SDS011;55512;50.102;19.958;2023-04-01T02:51:23;4.80;;;1.40;;
68509;SDS011;55512;50.102;19.958;2023-04-01T02:53:48;4.00;;;1.30;;
68509;SDS011;55512;50.102;19.958;2023-04-01T02:56:14;4.30;;;1.50;;
68509;SDS011;55512;50.102;19.958;2023-04-01T02:58:39;4.20;;;1.30;;
68509;SDS011;55512;50.102;19.958;2023-04-01T03:01:05;5.50;;;1.60;;
68509;SDS011;55512;50.102;19.958;2023-04-01T03:03:30;5.30;;;1.80;;
68509;SDS011;55512;50.102;19.958;2023-04-01T03:05:56;6.10;;;1.50;;
68509;SDS011;55512;50.102;19.958;2023-04-01T03:08:24;3.90;;;1.30;;
68509;SDS011;55512;50.102;19.958;2023-04-01T03:10:49;3.10;;;1.10;;
68509;SDS011;55512;50.102;19.958;2023-04-01T03:13:15;5.50;;;1.60;;
68509;SDS011;55512;50.102;19.958;2023-04-01T03:15:40;4.70;;;1.60;;
68509;SDS011;55512;50.102;19.958;2023-04-01T03:18:06;4.20;;;1.20;;
68509;SDS011;55512;50.102;19.958;2023-04-01T03:20:31;4.50;;;1.20;;
68509;SDS011;55512;50.102;19.958;2023-04-01T03:22:57;5.00;;;1.30;;
68509;SDS011;55512;50.102;19.958;2023-04-01T03:25:22;3.70;;;1.10;;
68509;SDS011;55512;50.102;19.958;2023-04-01T03:27:48;5.80;;;1.30;;
68509;SDS011;55512;50.102;19.958;2023-04-01T03:30:13;4.60;;;1.70;;
68509;SDS011;55512;50.102;19.958;2023-04-01T03:32:38;4.70;;;1.70;;
68509;SDS011;55512;50.102;19.958;2023-04-01T03:35:05;4.70;;;1.20;;
68509;SDS011;55512;50.102;19.958;2023-04-01T03:37:30;4.30;;;1.20;;
68509;SDS011;55512;50.102;19.958;2023-04-01T03:39:56;4.70;;;1.40;;
68509;SDS011;55512;50.102;19.958;2023-04-01T03:42:21;4.00;;;1.20;;
68509;SDS011;55512;50.102;19.958;2023-04-01T03:44:47;4.60;;;1.60;;
68509;SDS011;55512;50.102;19.958;2023-04-01T03:47:12;5.00;;;1.50;;
68509;SDS011;55512;50.102;19.958;2023-04-01T03:49:37;3.60;;;1.30;;
68509;SDS011;55512;50.102;19.958;2023-04-01T03:52:03;6.30;;;2.70;;
68509;SDS011;55512;50.102;19.958;2023-04-01T03:54:28;5.40;;;1.70;;
68509;SDS011;55512;50.102;19.958;2023-04-01T03:56:54;6.60;;;1.60;;
68509;SDS011;55512;50.102;19.958;2023-04-01T03:59:20;4.40;;;1.40;;
68509;SDS011;55512;50.102;19.958;2023-04-01T04:01:47;5.40;;;1.50;;
68509;SDS011;55512;50.102;19.958;2023-04-01T04:04:13;5.00;;;1.40;;
68509;SDS011;55512;50.102;19.958;2023-04-01T04:06:40;4.10;;;1.50;;
68509;SDS011;55512;50.102;19.958;2023-04-01T04:09:05;5.20;;;1.50;;
68509;SDS011;55512;50.102;19.958;2023-04-01T04:11:31;4.20;;;1.20;;
68509;SDS011;55512;50.102;19.958;2023-04-01T04:13:58;5.00;;;1.60;;
68509;SDS011;55512;50.102;19.958;2023-04-01T04:16:23;5.10;;;1.60;;
68509;SDS011;55512;50.102;19.958;2023-04-01T04:18:49;6.10;;;1.80;;
68509;SDS011;55512;50.102;19.958;2023-04-01T04:21:16;4.60;;;1.50;;
68509;SDS011;55512;50.102;19.958;2023-04-01T04:23:42;5.10;;;1.80;;
68509;SDS011;55512;50.102;19.958;2023-04-01T04:26:11;5.10;;;1.30;;
68509;SDS011;55512;50.102;19.958;2023-04-01T04:28:39;4.70;;;1.50;;
68509;SDS011;55512;50.102;19.958;2023-04-01T04:31:05;5.90;;;1.80;;
68509;SDS011;55512;50.102;19.958;2023-04-01T04:33:32;5.20;;;1.80;;
68509;SDS011;55512;50.102;19.958;2023-04-01T04:35:58;6.00;;;2.00;;
68509;SDS011;55512;50.102;19.958;2023-04-01T04:38:25;5.10;;;1.60;;
68509;SDS011;55512;50.102;19.958;2023-04-01T04:40:52;5.60;;;1.80;;
68509;SDS011;55512;50.102;19.958;2023-04-01T04:43:18;6.60;;;1.70;;
68509;SDS011;55512;50.102;19.958;2023-04-01T04:45:44;5.00;;;1.70;;
68509;SDS011;55512;50.102;19.958;2023-04-01T04:48:12;5.50;;;2.20;;
68509;SDS011;55512;50.102;19.958;2023-04-01T04:50:42;5.70;;;1.80;;
68509;SDS011;55512;50.102;19.958;2023-04-01T04:53:11;5.70;;;1.80;;
68509;SDS011;55512;50.102;19.958;2023-04-01T04:55:42;6.00;;;2.00;;
68509;SDS011;55512;50.102;19.958;2023-04-01T04:58:08;5.60;;;2.00;;
68509;SDS011;55512;50.102;19.958;2023-04-01T05:00:35;5.30;;;1.90;;
68509;SDS011;55512;50.102;19.958;2023-04-01T05:03:00;6.40;;;2.10;;
68509;SDS011;55512;50.102;19.958;2023-04-01T05:05:26;6.80;;;2.40;;
68509;SDS011;55512;50.102;19.958;2023-04-01T05:07:51;5.70;;;2.00;;
68509;SDS011;55512;50.102;19.958;2023-04-01T05:10:16;5.00;;;2.20;;
68509;SDS011;55512;50.102;19.958;2023-04-01T05:12:42;6.90;;;2.20;;
68509;SDS011;55512;50.102;19.958;2023-04-01T05:15:08;5.00;;;1.70;;
68509;SDS011;55512;50.102;19.958;2023-04-01T05:17:34;5.60;;;2.20;;
68509;SDS011;55512;50.102;19.958;2023-04-01T05:19:59;5.60;;;1.80;;
68509;SDS011;55512;50.102;19.958;2023-04-01T05:22:25;6.20;;;2.10;;
68509;SDS011;55512;50.102;19.958;2023-04-01T05:24:51;4.70;;;1.90;;
68509;SDS011;55512;50.102;19.958;2023-04-01T05:27:16;4.70;;;1.90;;
68509;SDS011;55512;50.102;19.958;2023-04-01T05:29:42;6.60;;;2.40;;
68509;SDS011;55512;50.102;19.958;2023-04-01T05:32:07;5.00;;;1.60;;
68509;SDS011;55512;50.102;19.958;2023-04-01T05:34:33;6.60;;;2.00;;
68509;SDS011;55512;50.102;19.958;2023-04-01T05:36:58;5.60;;;1.90;;
68509;SDS011;55512;50.102;19.958;2023-04-01T05:39:24;5.10;;;1.90;;
68509;SDS011;55512;50.102;19.958;2023-04-01T05:41:49;5.70;;;1.90;;
68509;SDS011;55512;50.102;19.958;2023-04-01T05:44:14;6.10;;;1.90;;
68509;SDS011;55512;50.102;19.958;2023-04-01T05:46:41;5.70;;;2.00;;
68509;SDS011;55512;50.102;19.958;2023-04-01T05:49:06;4.50;;;1.80;;
68509;SDS011;55512;50.102;19.958;2023-04-01T05:51:32;6.20;;;1.50;;
68509;SDS011;55512;50.102;19.958;2023-04-01T05:53:57;6.30;;;1.90;;
68509;SDS011;55512;50.102;19.958;2023-04-01T05:56:23;4.60;;;1.60;;
68509;SDS011;55512;50.102;19.958;2023-04-01T05:58:51;3.90;;;1.20;;
68509;SDS011;55512;50.102;19.958;2023-04-01T06:01:18;5.20;;;1.70;;
68509;SDS011;55512;50.102;19.958;2023-04-01T06:03:44;6.00;;;2.20;;
68509;SDS011;55512;50.102;19.958;2023-04-01T06:06:15;6.20;;;1.80;;
68509;SDS011;55512;50.102;19.958;2023-04-01T06:09:26;3.70;;;1.30;;
68509;SDS011;55512;50.102;19.958;2023-04-01T06:17:55;6.10;;;1.50;;
68509;SDS011;55512;50.102;19.958;2023-04-01T06:26:37;4.90;;;1.70;;
68509;SDS011;55512;50.102;19.958;2023-04-01T06:29:38;7.80;;;2.40;;
68509;SDS011;55512;50.102;19.958;2023-04-01T06:32:32;5.30;;;1.70;;
68509;SDS011;55512;50.102;19.958;2023-04-01T06:35:36;7.40;;;2.10;;
68509;SDS011;55512;50.102;19.958;2023-04-01T06:38:41;6.60;;;1.90;;
68509;SDS011;55512;50.102;19.958;2023-04-01T06:41:23;4.60;;;1.50;;
68509;SDS011;55512;50.102;19.958;2023-04-01T06:47:32;4.80;;;1.60;;
68509;SDS011;55512;50.102;19.958;2023-04-01T06:53:06;4.80;;;1.60;;
68509;SDS011;55512;50.102;19.958;2023-04-01T06:55:46;7.20;;;2.80;;
68509;SDS011;55512;50.102;19.958;2023-04-01T06:58:23;5.90;;;1.80;;
68509;SDS011;55512;50.102;19.958;2023-04-01T07:00:56;4.70;;;1.80;;
68509;SDS011;55512;50.102;19.958;2023-04-01T07:03:41;4.80;;;1.40;;
68509;SDS011;55512;50.102;19.958;2023-04-01T07:09:00;4.20;;;1.20;;
68509;SDS011;55512;50.102;19.958;2023-04-01T07:11:35;3.90;;;1.70;;
68509;SDS011;55512;50.102;19.958;2023-04-01T07:14:22;6.90;;;1.70;;
68509;SDS011;55512;50.102;19.958;2023-04-01T07:17:04;4.70;;;1.60;;
68509;SDS011;55512;50.102;19.958;2023-04-01T07:19:42;6.40;;;1.90;;
68509;SDS011;55512;50.102;19.958;2023-04-01T07:22:33;5.20;;;1.70;;
68509;SDS011;55512;50.102;19.958;2023-04-01T07:25:13;4.80;;;1.80;;
68509;SDS011;55512;50.102;19.958;2023-04-01T07:27:41;5.70;;;1.80;;
68509;SDS011;55512;50.102;19.958;2023-04-01T07:30:14;5.20;;;1.70;;
68509;SDS011;55512;50.102;19.958;2023-04-01T07:32:53;6.00;;;2.10;;
68509;SDS011;55512;50.102;19.958;2023-04-01T07:35:39;4.00;;;1.50;;
68509;SDS011;55512;50.102;19.958;2023-04-01T07:49:30;5.20;;;1.70;;
68509;SDS011;55512;50.102;19.958;2023-04-01T07:55:15;7.20;;;1.70;;
68509;SDS011;55512;50.102;19.958;2023-04-01T08:01:33;5.20;;;1.40;;
68509;SDS011;55512;50.102;19.958;2023-04-01T08:15:22;3.20;;;1.40;;
68509;SDS011;55512;50.102;19.958;2023-04-01T08:18:01;4.60;;;1.30;;
68509;SDS011;55512;50.102;19.958;2023-04-01T08:23:30;4.70;;;1.40;;
68509;SDS011;55512;50.102;19.958;2023-04-01T08:26:34;4.70;;;1.60;;
68509;SDS011;55512;50.102;19.958;2023-04-01T08:29:17;4.60;;;1.90;;
68509;SDS011;55512;50.102;19.958;2023-04-01T08:31:56;5.00;;;1.60;;
68509;SDS011;55512;50.102;19.958;2023-04-01T08:34:36;6.50;;;1.70;;
68509;SDS011;55512;50.102;19.958;2023-04-01T08:37:36;5.10;;;1.30;;
68509;SDS011;55512;50.102;19.958;2023-04-01T09:01:36;3.70;;;1.50;;
68509;SDS011;55512;50.102;19.958;2023-04-01T09:07:35;3.80;;;1.40;;
68509;SDS011;55512;50.102;19.958;2023-04-01T09:16:17;2.90;;;1.30;;
68509;SDS011;55512;50.102;19.958;2023-04-01T09:19:52;6.20;;;1.80;;
68509;SDS011;55512;50.102;19.958;2023-04-01T09:35:01;4.40;;;1.90;;
68509;SDS011;55512;50.102;19.958;2023-04-01T09:37:53;4.40;;;1.40;;
68509;SDS011;55512;50.102;19.958;2023-04-01T09:40:47;4.30;;;1.90;;
68509;SDS011;55512;50.102;19.958;2023-04-01T09:56:17;7.40;;;3.70;;
68509;SDS011;55512;50.102;19.958;2023-04-01T10:04:58;3.80;;;1.70;;
68509;SDS011;55512;50.102;19.958;2023-04-01T10:10:52;5.80;;;2.00;;
68509;SDS011;55512;50.102;19.958;2023-04-01T10:19:49;6.30;;;3.10;;
68509;SDS011;55512;50.102;19.958;2023-04-01T10:53:27;3.30;;;1.30;;
68509;SDS011;55512;50.102;19.958;2023-04-01T10:59:08;2.90;;;1.20;;
68509;SDS011;55512;50.102;19.958;2023-04-01T11:26:08;2.70;;;1.40;;
68509;SDS011;55512;50.102;19.958;2023-04-01T11:29:11;4.30;;;1.60;;
68509;SDS011;55512;50.102;19.958;2023-04-01T11:40:54;4.30;;;2.00;;
68509;SDS011;55512;50.102;19.958;2023-04-01T11:49:28;3.40;;;1.70;;
68509;SDS011;55512;50.102;19.958;2023-04-01T11:52:05;5.50;;;2.40;;
68509;SDS011;55512;50.102;19.958;2023-04-01T12:09:36;5.40;;;2.40;;
68509;SDS011;55512;50.102;19.958;2023-04-01T12:12:29;4.60;;;2.20;;
68509;SDS011;55512;50.102;19.958;2023-04-01T12:15:19;5.30;;;2.20;;
68509;SDS011;55512;50.102;19.958;2023-04-01T12:20:51;5.00;;;2.30;;
68509;SDS011;55512;50.102;19.958;2023-04-01T12:26:28;4.20;;;2.30;;
68509;SDS011;55512;50.102;19.958;2023-04-01T12:32:40;6.30;;;2.00;;
68509;SDS011;55512;50.102;19.958;2023-04-01T12:44:52;4.70;;;1.50;;
68509;SDS011;55512;50.102;19.958;2023-04-01T12:55:52;4.40;;;1.70;;
68509;SDS011;55512;50.102;19.958;2023-04-01T13:01:27;4.50;;;2.00;;
68509;SDS011;55512;50.102;19.958;2023-04-01T13:07:34;3.70;;;1.70;;
68509;SDS011;55512;50.102;19.958;2023-04-01T13:10:33;4.70;;;2.00;;
68509;SDS011;55512;50.102;19.958;2023-04-01T13:13:30;4.20;;;1.60;;
68509;SDS011;55512;50.102;19.958;2023-04-01T13:16:27;4.50;;;2.10;;
68509;SDS011;55512;50.102;19.958;2023-04-01T13:24:29;4.80;;;2.10;;
68509;SDS011;55512;50.102;19.958;2023-04-01T13:27:43;5.30;;;2.60;;
68509;SDS011;55512;50.102;19.958;2023-04-01T13:30:26;5.20;;;2.20;;
68509;SDS011;55512;50.102;19.958;2023-04-01T13:36:33;5.50;;;2.40;;
68509;SDS011;55512;50.102;19.958;2023-04-01T13:39:29;4.50;;;1.70;;
68509;SDS011;55512;50.102;19.958;2023-04-01T13:42:24;4.40;;;2.30;;
68509;SDS011;55512;50.102;19.958;2023-04-01T13:45:14;4.10;;;2.10;;
68509;SDS011;55512;50.102;19.958;2023-04-01T13:48:06;4.40;;;1.60;;
68509;SDS011;55512;50.102;19.958;2023-04-01T13:51:12;3.50;;;1.10;;
68509;SDS011;55512;50.102;19.958;2023-04-01T13:56:55;3.40;;;1.30;;
68509;SDS011;55512;50.102;19.958;2023-04-01T14:05:32;2.20;;;1.40;;
68509;SDS011;55512;50.102;19.958;2023-04-01T14:08:26;4.20;;;1.20;;
68509;SDS011;55512;50.102;19.958;2023-04-01T14:31:39;4.10;;;1.30;;
68509;SDS011;55512;50.102;19.958;2023-04-01T14:46:50;5.70;;;2.90;;
68509;SDS011;55512;50.102;19.958;2023-04-01T14:49:43;4.80;;;2.50;;
68509;SDS011;55512;50.102;19.958;2023-04-01T14:52:23;6.00;;;3.30;;
68509;SDS011;55512;50.102;19.958;2023-04-01T14:54:54;6.80;;;3.10;;
68509;SDS011;55512;50.102;19.958;2023-04-01T14:57:29;6.40;;;2.90;;
68509;SDS011;55512;50.102;19.958;2023-04-01T15:00:17;7.20;;;2.80;;
68509;SDS011;55512;50.102;19.958;2023-04-01T15:05:39;6.90;;;3.20;;
68509;SDS011;55512;50.102;19.958;2023-04-01T15:08:20;6.70;;;3.20;;
68509;SDS011;55512;50.102;19.958;2023-04-01T15:11:12;6.40;;;3.00;;
68509;SDS011;55512;50.102;19.958;2023-04-01T15:14:01;5.90;;;3.20;;
68509;SDS011;55512;50.102;19.958;2023-04-01T15:34:57;5.00;;;2.10;;
68509;SDS011;55512;50.102;19.958;2023-04-01T15:46:47;4.20;;;2.00;;
68509;SDS011;55512;50.102;19.958;2023-04-01T15:51:47;5.70;;;2.40;;
68509;SDS011;55512;50.102;19.958;2023-04-01T15:57:33;4.80;;;2.40;;
68509;SDS011;55512;50.102;19.958;2023-04-01T16:04:25;6.70;;;2.70;;
68509;SDS011;55512;50.102;19.958;2023-04-01T16:07:43;6.10;;;2.70;;
68509;SDS011;55512;50.102;19.958;2023-04-01T16:13:56;7.20;;;3.10;;
68509;SDS011;55512;50.102;19.958;2023-04-01T16:19:51;6.50;;;2.90;;
68509;SDS011;55512;50.102;19.958;2023-04-01T16:22:28;7.30;;;3.30;;
68509;SDS011;55512;50.102;19.958;2023-04-01T16:27:58;7.20;;;3.00;;
68509;SDS011;55512;50.102;19.958;2023-04-01T16:36:59;6.90;;;3.00;;
68509;SDS011;55512;50.102;19.958;2023-04-01T16:40:46;8.10;;;3.50;;
68509;SDS011;55512;50.102;19.958;2023-04-01T16:54:39;7.80;;;4.00;;
68509;SDS011;55512;50.102;19.958;2023-04-01T16:59:41;8.80;;;4.80;;
68509;SDS011;55512;50.102;19.958;2023-04-01T17:02:14;6.90;;;3.90;;
68509;SDS011;55512;50.102;19.958;2023-04-01T17:04:45;8.60;;;4.40;;
68509;SDS011;55512;50.102;19.958;2023-04-01T17:10:46;8.20;;;5.20;;
68509;SDS011;55512;50.102;19.958;2023-04-01T17:13:41;10.00;;;5.70;;
68509;SDS011;55512;50.102;19.958;2023-04-01T17:22:52;10.50;;;5.70;;
68509;SDS011;55512;50.102;19.958;2023-04-01T17:28:24;10.60;;;6.00;;
68509;SDS011;55512;50.102;19.958;2023-04-01T17:31:18;10.40;;;6.10;;
68509;SDS011;55512;50.102;19.958;2023-04-01T17:45:57;9.50;;;6.10;;
68509;SDS011;55512;50.102;19.958;2023-04-01T17:48:31;10.00;;;5.50;;
68509;SDS011;55512;50.102;19.958;2023-04-01T17:57:01;11.10;;;6.10;;
68509;SDS011;55512;50.102;19.958;2023-04-01T17:59:38;11.30;;;6.50;;
68509;SDS011;55512;50.102;19.958;2023-04-01T18:08:22;10.80;;;6.40;;
68509;SDS011;55512;50.102;19.958;2023-04-01T18:11:35;12.70;;;7.40;;
68509;SDS011;55512;50.102;19.958;2023-04-01T18:17:25;8.30;;;4.30;;
68509;SDS011;55512;50.102;19.958;2023-04-01T18:23:14;11.60;;;7.20;;
68509;SDS011;55512;50.102;19.958;2023-04-01T18:25:55;13.30;;;7.90;;
68509;SDS011;55512;50.102;19.958;2023-04-01T18:28:39;13.90;;;7.40;;
68509;SDS011;55512;50.102;19.958;2023-04-01T18:31:17;12.90;;;7.20;;
68509;SDS011;55512;50.102;19.958;2023-04-01T18:34:02;13.50;;;8.40;;
68509;SDS011;55512;50.102;19.958;2023-04-01T18:36:50;12.50;;;7.70;;
68509;SDS011;55512;50.102;19.958;2023-04-01T18:39:40;12.10;;;7.30;;
68509;SDS011;55512;50.102;19.958;2023-04-01T18:42:24;12.00;;;7.40;;
68509;SDS011;55512;50.102;19.958;2023-04-01T18:45:19;14.70;;;8.20;;
68509;SDS011;55512;50.102;19.958;2023-04-01T18:54:02;16.60;;;9.20;;
68509;SDS011;55512;50.102;19.958;2023-04-01T18:56:37;13.10;;;8.00;;
68509;SDS011;55512;50.102;19.958;2023-04-01T18:59:22;14.30;;;8.70;;
68509;SDS011;55512;50.102;19.958;2023-04-01T19:05:16;15.50;;;9.00;;
68509;SDS011;55512;50.102;19.958;2023-04-01T19:07:55;17.40;;;10.50;;
68509;SDS011;55512;50.102;19.958;2023-04-01T19:17:10;19.20;;;11.50;;
68509;SDS011;55512;50.102;19.958;2023-04-01T19:26:05;18.90;;;11.70;;
68509;SDS011;55512;50.102;19.958;2023-04-01T19:29:02;17.30;;;11.20;;
68509;SDS011;55512;50.102;19.958;2023-04-01T19:46:16;23.60;;;14.00;;
68509;SDS011;55512;50.102;19.958;2023-04-01T19:49:02;22.00;;;14.00;;
68509;SDS011;55512;50.102;19.958;2023-04-01T20:07:14;22.40;;;14.30;;
68509;SDS011;55512;50.102;19.958;2023-04-01T20:12:54;27.10;;;16.30;;
68509;SDS011;55512;50.102;19.958;2023-04-01T20:15:36;22.40;;;14.40;;
68509;SDS011;55512;50.102;19.958;2023-04-01T20:18:13;26.30;;;16.20;;
68509;SDS011;55512;50.102;19.958;2023-04-01T20:20:57;26.20;;;15.90;;
68509;SDS011;55512;50.102;19.958;2023-04-01T20:23:39;25.90;;;15.70;;
68509;SDS011;55512;50.102;19.958;2023-04-01T20:26:11;24.40;;;15.80;;
68509;SDS011;55512;50.102;19.958;2023-04-01T20:31:41;26.10;;;15.10;;
68509;SDS011;55512;50.102;19.958;2023-04-01T20:34:21;29.10;;;16.40;;
68509;SDS011;55512;50.102;19.958;2023-04-01T20:45:33;22.20;;;14.30;;
68509;SDS011;55512;50.102;19.958;2023-04-01T20:51:29;24.40;;;13.20;;
68509;SDS011;55512;50.102;19.958;2023-04-01T20:54:15;21.20;;;13.70;;
68509;SDS011;55512;50.102;19.958;2023-04-01T20:57:12;23.70;;;14.30;;
68509;SDS011;55512;50.102;19.958;2023-04-01T21:00:04;21.60;;;12.90;;
68509;SDS011;55512;50.102;19.958;2023-04-01T21:09:20;23.20;;;14.00;;
68509;SDS011;55512;50.102;19.958;2023-04-01T21:15:31;21.40;;;13.40;;
68509;SDS011;55512;50.102;19.958;2023-04-01T21:27:02;25.30;;;14.50;;
68509;SDS011;55512;50.102;19.958;2023-04-01T21:29:59;23.50;;;13.10;;
68509;SDS011;55512;50.102;19.958;2023-04-01T21:32:41;22.10;;;13.60;;
68509;SDS011;55512;50.102;19.958;2023-04-01T21:35:32;24.20;;;14.90;;
68509;SDS011;55512;50.102;19.958;2023-04-01T21:41:41;22.40;;;12.80;;
68509;SDS011;55512;50.102;19.958;2023-04-01T21:44:56;23.40;;;13.00;;
68509;SDS011;55512;50.102;19.958;2023-04-01T22:03:07;22.90;;;13.70;;
68509;SDS011;55512;50.102;19.958;2023-04-01T22:09:38;22.00;;;13.50;;
68509;SDS011;55512;50.102;19.958;2023-04-01T22:27:45;24.10;;;14.00;;
68509;SDS011;55512;50.102;19.958;2023-04-01T22:30:24;23.60;;;13.80;;
68509;SDS011;55512;50.102;19.958;2023-04-01T22:50:29;21.50;;;12.90;;
68509;SDS011;55512;50.102;19.958;2023-04-01T22:55:40;23.00;;;13.30;;
68509;SDS011;55512;50.102;19.958;2023-04-01T22:58:14;24.10;;;13.60;;
68509;SDS011;55512;50.102;19.958;2023-04-01T23:00:49;24.40;;;14.00;;
68509;SDS011;55512;50.102;19.958;2023-04-01T23:03:24;24.40;;;14.70;;
68509;SDS011;55512;50.102;19.958;2023-04-01T23:05:57;23.40;;;14.10;;
68509;SDS011;55512;50.102;19.958;2023-04-01T23:10:54;24.40;;;13.50;;
68509;SDS011;55512;50.102;19.958;2023-04-01T23:13:29;23.40;;;13.20;;
68509;SDS011;55512;50.102;19.958;2023-04-01T23:15:59;22.40;;;11.20;;
68509;SDS011;55512;50.102;19.958;2023-04-01T23:22:07;18.30;;;10.40;;
68509;SDS011;55512;50.102;19.958;2023-04-01T23:27:45;21.60;;;13.00;;
68509;SDS011;55512;50.102;19.958;2023-04-01T23:33:26;23.80;;;13.90;;
68509;SDS011;55512;50.102;19.958;2023-04-01T23:38:38;24.20;;;13.50;;
68509;SDS011;55512;50.102;19.958;2023-04-01T23:41:09;14.90;;;9.10;;
68509;SDS011;55512;50.102;19.958;2023-04-01T23:43:52;22.60;;;12.70;;
68509;SDS011;55512;50.102;19.958;2023-04-01T23:46:21;23.20;;;13.60;;
68509;SDS011;55512;50.102;19.958;2023-04-01T23:48:48;24.30;;;15.30;;
68509;SDS011;55512;50.102;19.958;2023-04-01T23:51:20;26.00;;;14.70;;
68509;SDS011;55512;50.102;19.958;2023-04-01T23:54:03;23.60;;;14.30;;
68509;SDS011;55512;50.102;19.958;2023-04-01T23:56:56;22.50;;;13.10;;
68509;SDS011;55512;50.102;19.958;2023-04-01T23:59:27;21.40;;;12.80;;
